createdAt,value
2023-04-20T00:00:50.440Z,15.00
2023-04-20T00:03:22.138Z,13.10
2023-04-20T00:05:50.216Z,16.50
2023-04-20T00:08:18.848Z,12.10
2023-04-20T00:10:47.012Z,12.90
2023-04-20T00:13:14.992Z,20.40
2023-04-20T00:15:42.933Z,19.70
2023-04-20T00:18:11.521Z,15.90
2023-04-20T00:20:39.453Z,13.80
2023-04-20T00:23:07.810Z,13.20
2023-04-20T00:25:36.398Z,20.50
2023-04-20T00:28:05.214Z,14.10
2023-04-20T00:30:34.959Z,12.10
2023-04-20T00:33:03.124Z,12.70
2023-04-20T00:35:31.212Z,15.90
2023-04-20T00:37:59.263Z,14.30
2023-04-20T00:40:27.188Z,14.50
2023-04-20T00:42:55.073Z,14.10
2023-04-20T00:45:24.598Z,15.90
2023-04-20T00:47:52.531Z,15.70
2023-04-20T00:50:21.877Z,12.30
2023-04-20T00:52:49.831Z,15.00
2023-04-20T00:55:19.237Z,14.70
2023-04-20T00:57:47.102Z,15.60
2023-04-20T01:00:15.188Z,11.00
2023-04-20T01:02:43.943Z,13.90
2023-04-20T01:05:12.375Z,17.70
2023-04-20T01:07:41.029Z,14.10
2023-04-20T01:10:09.310Z,15.90
2023-04-20T01:12:40.541Z,15.30
2023-04-20T01:15:09.063Z,15.90
2023-04-20T01:17:39.748Z,14.10
2023-04-20T01:20:09.378Z,13.10
2023-04-20T01:22:50.283Z,16.50
2023-04-20T01:25:18.372Z,12.20
2023-04-20T01:27:47.815Z,12.90
2023-04-20T01:30:15.813Z,12.60
2023-04-20T01:32:43.845Z,14.30
2023-04-20T01:35:12.244Z,12.90
2023-04-20T01:37:40.608Z,15.50
2023-04-20T01:40:09.947Z,14.00
2023-04-20T01:42:38.309Z,13.40
2023-04-20T01:45:07.216Z,13.50
2023-04-20T01:47:36.724Z,13.20
2023-04-20T01:50:05.102Z,15.50
2023-04-20T01:52:33.063Z,12.00
2023-04-20T01:55:01.052Z,14.30
2023-04-20T01:57:29.094Z,16.00
2023-04-20T01:59:57.046Z,14.90
2023-04-20T02:02:25.003Z,14.80
2023-04-20T02:04:53.979Z,16.60
2023-04-20T02:07:21.997Z,14.60
2023-04-20T02:09:49.945Z,14.90
2023-04-20T02:12:17.889Z,13.00
2023-04-20T02:14:45.711Z,13.80
2023-04-20T02:17:15.645Z,13.80
2023-04-20T02:19:43.867Z,15.50
2023-04-20T02:22:11.675Z,16.10
2023-04-20T02:24:39.497Z,14.30
2023-04-20T02:27:07.514Z,15.50
2023-04-20T02:29:35.614Z,11.60
2023-04-20T02:32:03.819Z,12.50
2023-04-20T02:34:31.584Z,13.70
2023-04-20T02:36:59.553Z,17.10
2023-04-20T02:39:27.414Z,14.60
2023-04-20T02:41:56.110Z,16.50
2023-04-20T02:44:24.680Z,15.10
2023-04-20T02:46:52.746Z,10.40
2023-04-20T02:49:21.171Z,14.50
2023-04-20T02:51:49.238Z,12.40
2023-04-20T02:54:17.084Z,11.70
2023-04-20T02:56:45.350Z,15.20
2023-04-20T02:59:13.326Z,14.20
2023-04-20T03:01:59.617Z,13.20
2023-04-20T03:04:27.965Z,14.60
2023-04-20T03:07:01.420Z,14.00
2023-04-20T03:09:31.265Z,14.30
2023-04-20T03:11:59.072Z,12.00
2023-04-20T03:14:56.081Z,12.80
2023-04-20T03:17:30.770Z,14.60
2023-04-20T03:19:58.711Z,14.80
2023-04-20T03:22:26.806Z,15.20
2023-04-20T03:24:57.291Z,13.10
2023-04-20T03:27:40.416Z,13.30
2023-04-20T03:30:12.420Z,15.50
2023-04-20T03:32:42.043Z,10.40
2023-04-20T03:35:10.397Z,14.60
2023-04-20T03:37:38.402Z,13.50
2023-04-20T03:40:08.700Z,13.20
2023-04-20T03:42:37.679Z,9.20
2023-04-20T03:45:06.790Z,13.90
2023-04-20T03:47:35.165Z,13.20
2023-04-20T03:50:03.263Z,10.80
2023-04-20T03:52:31.459Z,11.00
2023-04-20T03:55:01.898Z,14.30
2023-04-20T03:57:29.896Z,12.90
2023-04-20T03:59:57.784Z,12.30
2023-04-20T04:02:27.248Z,13.10
2023-04-20T04:04:55.688Z,9.10
2023-04-20T04:07:24.174Z,11.10
2023-04-20T04:09:52.143Z,11.80
2023-04-20T04:12:20.023Z,16.20
2023-04-20T04:14:48.509Z,13.50
2023-04-20T04:17:17.378Z,13.90
2023-04-20T04:21:13.536Z,12.50
2023-04-20T04:23:43.816Z,12.50
2023-04-20T04:26:24.818Z,13.80
2023-04-20T04:28:53.539Z,11.60
2023-04-20T04:31:23.691Z,10.70
2023-04-20T04:33:52.312Z,9.60
2023-04-20T04:36:27.999Z,12.40
2023-04-20T04:38:57.520Z,13.40
2023-04-20T04:41:25.985Z,14.30
2023-04-20T04:43:54.838Z,15.20
2023-04-20T04:46:27.799Z,13.40
2023-04-20T04:49:01.256Z,13.90
2023-04-20T04:51:29.458Z,12.90
2023-04-20T04:53:57.402Z,13.30
2023-04-20T04:56:25.741Z,15.90
2023-04-20T04:58:53.586Z,12.30
2023-04-20T05:01:21.471Z,15.40
2023-04-20T05:03:49.707Z,14.30
2023-04-20T05:06:17.689Z,16.30
2023-04-20T05:08:46.453Z,14.80
2023-04-20T05:11:14.428Z,17.70
2023-04-20T05:13:42.615Z,13.40
2023-04-20T05:16:11.381Z,13.20
2023-04-20T05:18:39.558Z,12.70
2023-04-20T05:21:07.424Z,14.60
2023-04-20T05:23:36.302Z,13.30
2023-04-20T05:26:04.550Z,14.70
2023-04-20T05:28:35.825Z,13.00
2023-04-20T05:31:03.620Z,11.00
2023-04-20T05:33:31.653Z,9.70
2023-04-20T05:35:59.662Z,14.70
2023-04-20T05:38:28.009Z,13.80
2023-04-20T05:40:56.132Z,13.90
2023-04-20T05:43:24.048Z,13.00
2023-04-20T05:45:52.125Z,11.50
2023-04-20T05:48:20.551Z,10.40
2023-04-20T05:50:48.398Z,12.50
2023-04-20T05:53:16.225Z,15.60
2023-04-20T05:55:44.198Z,13.00
2023-04-20T05:58:12.331Z,13.70
2023-04-20T06:00:40.803Z,14.80
2023-04-20T06:03:09.030Z,14.70
2023-04-20T06:05:37.482Z,14.10
2023-04-20T06:08:05.969Z,12.60
2023-04-20T06:10:34.823Z,14.40
2023-04-20T06:13:02.755Z,14.80
2023-04-20T06:15:30.946Z,14.50
2023-04-20T06:17:59.017Z,17.20
2023-04-20T06:20:26.972Z,13.30
2023-04-20T06:22:55.596Z,17.50
2023-04-20T06:25:23.494Z,14.60
2023-04-20T06:27:52.801Z,11.40
2023-04-20T06:30:20.991Z,17.40
2023-04-20T06:32:49.196Z,13.80
2023-04-20T06:35:17.150Z,15.70
2023-04-20T06:37:45.623Z,15.90
2023-04-20T06:40:16.153Z,17.60
2023-04-20T06:42:45.781Z,15.90
2023-04-20T06:45:13.800Z,14.80
2023-04-20T06:47:41.824Z,15.60
2023-04-20T06:50:10.217Z,13.60
2023-04-20T06:52:39.007Z,13.80
2023-04-20T06:55:07.470Z,16.00
2023-04-20T06:57:35.552Z,14.20
2023-04-20T07:00:03.973Z,13.30
2023-04-20T07:02:50.793Z,14.00
2023-04-20T07:05:19.087Z,15.80
2023-04-20T07:07:47.200Z,12.00
2023-04-20T07:10:15.530Z,12.60
2023-04-20T07:12:44.119Z,15.50
2023-04-20T07:15:12.794Z,13.70
2023-04-20T07:17:40.870Z,14.20
2023-04-20T07:20:09.582Z,13.10
2023-04-20T07:22:38.444Z,13.50
2023-04-20T07:25:07.762Z,15.90
2023-04-20T07:27:37.561Z,16.80
2023-04-20T07:30:07.223Z,14.10
2023-04-20T07:32:36.098Z,13.80
2023-04-20T07:35:04.662Z,13.30
2023-04-20T07:37:33.335Z,16.00
2023-04-20T07:40:02.033Z,15.10
2023-04-20T07:42:31.579Z,12.10
2023-04-20T07:44:59.499Z,16.30
2023-04-20T07:47:27.720Z,15.50
2023-04-20T07:49:57.576Z,13.30
2023-04-20T07:52:25.992Z,16.30
2023-04-20T07:54:53.940Z,14.40
2023-04-20T07:57:21.819Z,14.80
2023-04-20T07:59:49.756Z,14.80
2023-04-20T08:02:17.943Z,16.60
2023-04-20T08:04:46.679Z,12.60
2023-04-20T08:07:15.139Z,13.40
2023-04-20T08:09:43.199Z,16.00
2023-04-20T08:12:12.267Z,14.10
2023-04-20T08:14:41.311Z,15.60
2023-04-20T08:17:09.375Z,13.40
2023-04-20T08:19:37.491Z,10.90
2023-04-20T08:22:05.768Z,15.60
2023-04-20T08:24:34.445Z,14.50
2023-04-20T08:27:02.353Z,13.70
2023-04-20T08:29:30.930Z,14.20
2023-04-20T08:31:58.903Z,10.60
2023-04-20T08:34:27.199Z,14.10
2023-04-20T08:36:55.651Z,14.80
2023-04-20T08:39:24.482Z,14.80
2023-04-20T08:41:55.561Z,16.50
2023-04-20T08:44:24.478Z,18.30
2023-04-20T08:46:52.352Z,13.60
2023-04-20T08:49:21.217Z,15.40
2023-04-20T08:51:49.413Z,17.10
2023-04-20T08:54:17.866Z,13.60
2023-04-20T08:56:47.145Z,15.70
2023-04-20T08:59:16.365Z,17.00
2023-04-20T09:01:44.689Z,12.30
2023-04-20T09:04:27.018Z,15.10
2023-04-20T09:06:55.897Z,14.00
2023-04-20T09:09:25.279Z,15.00
2023-04-20T09:12:07.656Z,14.70
2023-04-20T09:14:47.085Z,14.00
2023-04-20T09:17:16.033Z,13.40
2023-04-20T09:19:44.724Z,13.50
2023-04-20T09:22:12.745Z,14.60
2023-04-20T09:24:41.478Z,17.00
2023-04-20T09:27:22.648Z,12.80
2023-04-20T09:30:00.418Z,17.80
2023-04-20T09:32:29.595Z,14.80
2023-04-20T09:34:57.629Z,12.40
2023-04-20T09:37:25.791Z,17.10
2023-04-20T09:39:55.981Z,14.60
2023-04-20T09:42:23.792Z,13.80
2023-04-20T09:44:51.543Z,13.10
2023-04-20T09:47:19.683Z,14.40
2023-04-20T09:49:47.798Z,15.10
2023-04-20T09:52:17.342Z,13.70
2023-04-20T09:54:45.452Z,11.50
2023-04-20T09:57:14.045Z,10.80
2023-04-20T09:59:46.790Z,10.90
2023-04-20T10:02:15.022Z,13.80
2023-04-20T10:04:58.717Z,12.30
2023-04-20T10:07:31.853Z,15.00
2023-04-20T10:10:11.334Z,11.60
2023-04-20T10:12:54.615Z,16.60
2023-04-20T10:15:24.278Z,14.00
2023-04-20T10:17:53.491Z,15.40
2023-04-20T10:20:26.406Z,12.80
2023-04-20T10:23:06.743Z,18.80
2023-04-20T10:25:34.509Z,13.20
2023-04-20T10:28:05.492Z,15.40
2023-04-20T10:30:33.588Z,12.80
2023-04-20T10:33:03.373Z,13.90
2023-04-20T10:35:51.224Z,13.60
2023-04-20T10:38:30.480Z,11.20
2023-04-20T10:41:12.134Z,11.60
2023-04-20T10:43:43.351Z,14.10
2023-04-20T10:46:18.287Z,13.20
2023-04-20T10:48:50.380Z,14.10
2023-04-20T10:51:18.694Z,15.80
2023-04-20T10:53:46.510Z,14.50
2023-04-20T10:56:14.421Z,14.30
2023-04-20T10:58:43.026Z,12.70
2023-04-20T11:01:11.177Z,8.50
2023-04-20T11:03:39.149Z,14.40
2023-04-20T11:06:07.732Z,15.00
2023-04-20T11:08:43.328Z,12.10
2023-04-20T11:11:21.316Z,15.00
2023-04-20T11:13:49.198Z,15.90
2023-04-20T11:16:18.292Z,12.20
2023-04-20T11:18:52.099Z,12.80
2023-04-20T11:21:21.880Z,12.40
2023-04-20T11:23:50.293Z,11.50
2023-04-20T11:26:18.869Z,12.30
2023-04-20T11:28:56.477Z,12.20
2023-04-20T11:31:26.365Z,16.20
2023-04-20T11:33:54.377Z,15.30
2023-04-20T11:36:23.589Z,10.80
2023-04-20T11:38:51.490Z,13.70
2023-04-20T11:41:19.473Z,11.80
2023-04-20T11:43:47.403Z,10.40
2023-04-20T11:46:17.156Z,13.70
2023-04-20T11:48:45.927Z,13.20
2023-04-20T11:51:14.323Z,12.30
2023-04-20T11:53:42.746Z,12.00
2023-04-20T11:56:10.815Z,13.10
2023-04-20T11:58:38.674Z,15.00
2023-04-20T12:01:06.864Z,13.40
2023-04-20T12:03:35.119Z,13.20
2023-04-20T12:06:04.872Z,13.10
2023-04-20T12:08:33.129Z,12.00
2023-04-20T12:11:00.985Z,14.30
2023-04-20T12:13:29.060Z,13.30
2023-04-20T12:15:56.960Z,12.60
2023-04-20T12:18:25.198Z,13.80
2023-04-20T12:20:53.268Z,12.70
2023-04-20T12:23:21.197Z,12.00
2023-04-20T12:25:49.622Z,13.60
2023-04-20T12:28:17.834Z,15.20
2023-04-20T12:30:46.205Z,12.30
2023-04-20T12:33:14.373Z,10.00
2023-04-20T12:35:42.438Z,11.10
2023-04-20T12:38:11.769Z,12.80
2023-04-20T12:40:41.134Z,12.60
2023-04-20T12:43:09.220Z,15.20
2023-04-20T12:45:37.119Z,10.60
2023-04-20T12:48:05.204Z,15.60
2023-04-20T12:50:33.657Z,14.10
2023-04-20T12:53:02.573Z,13.60
2023-04-20T12:55:30.774Z,12.60
2023-04-20T12:57:58.846Z,15.60
2023-04-20T13:00:26.795Z,10.60
2023-04-20T13:02:54.892Z,12.80
2023-04-20T13:05:22.976Z,12.50
2023-04-20T13:07:51.645Z,14.70
2023-04-20T13:10:19.490Z,11.50
2023-04-20T13:12:48.235Z,10.10
2023-04-20T13:15:31.807Z,12.60
2023-04-20T13:18:06.651Z,14.00
2023-04-20T13:20:34.860Z,12.60
2023-04-20T13:23:03.630Z,14.10
2023-04-20T13:25:34.653Z,11.20
2023-04-20T13:28:03.105Z,13.60
2023-04-20T13:30:30.993Z,11.90
2023-04-20T13:32:58.951Z,10.90
2023-04-20T13:35:26.826Z,15.70
2023-04-20T13:37:54.818Z,11.60
2023-04-20T13:40:22.834Z,15.30
2023-04-20T13:42:50.838Z,14.80
2023-04-20T13:45:18.795Z,12.30
2023-04-20T13:47:46.947Z,12.30
2023-04-20T13:50:14.834Z,12.60
2023-04-20T13:52:42.698Z,12.70
2023-04-20T13:55:11.256Z,11.10
2023-04-20T13:57:39.553Z,14.00
2023-04-20T14:00:08.342Z,15.70
2023-04-20T14:02:36.887Z,11.90
2023-04-20T14:05:06.417Z,15.80
2023-04-20T14:07:34.470Z,13.30
2023-04-20T14:10:02.816Z,14.10
2023-04-20T14:12:33.690Z,12.30
2023-04-20T14:15:02.505Z,10.20
2023-04-20T14:17:30.736Z,12.80
2023-04-20T14:19:59.496Z,10.20
2023-04-20T14:22:32.188Z,11.90
2023-04-20T14:25:00.496Z,13.30
2023-04-20T14:27:28.387Z,13.00
2023-04-20T14:29:56.430Z,13.60
2023-04-20T14:32:24.385Z,11.40
2023-04-20T14:34:52.316Z,13.50
2023-04-20T14:37:20.303Z,13.90
2023-04-20T14:39:48.655Z,12.50
2023-04-20T14:42:16.513Z,12.40
2023-04-20T14:44:44.487Z,11.20
2023-04-20T14:47:12.347Z,11.60
2023-04-20T14:49:40.236Z,11.80
2023-04-20T14:52:08.097Z,11.60
2023-04-20T14:54:36.677Z,13.20
2023-04-20T14:57:04.605Z,13.70
2023-04-20T14:59:33.909Z,13.50
2023-04-20T15:02:03.513Z,12.00
2023-04-20T15:04:32.557Z,10.00
2023-04-20T15:07:00.761Z,14.90
2023-04-20T15:09:28.937Z,16.80
2023-04-20T15:11:57.170Z,11.40
2023-04-20T15:14:25.194Z,13.60
2023-04-20T15:16:53.256Z,11.70
2023-04-20T15:19:22.717Z,11.70
2023-04-20T15:21:50.625Z,14.30
2023-04-20T15:24:18.754Z,13.30
2023-04-20T15:26:46.999Z,11.60
2023-04-20T15:29:14.990Z,14.30
2023-04-20T15:31:45.593Z,12.80
2023-04-20T15:34:15.596Z,13.50
2023-04-20T15:36:43.764Z,13.80
2023-04-20T15:39:12.517Z,14.70
2023-04-20T15:41:40.459Z,12.00
2023-04-20T15:44:08.302Z,13.40
2023-04-20T15:46:37.601Z,13.70
2023-04-20T15:49:05.561Z,11.40
2023-04-20T15:51:34.429Z,13.20
2023-04-20T15:54:02.264Z,16.50
2023-04-20T15:56:31.097Z,12.20
2023-04-20T15:58:58.981Z,12.80
2023-04-20T16:01:26.957Z,11.80
2023-04-20T16:03:55.163Z,17.90
2023-04-20T16:06:24.203Z,12.90
2023-04-20T16:08:54.014Z,14.30
2023-04-20T16:11:22.578Z,10.50
2023-04-20T16:13:50.591Z,12.50
2023-04-20T16:16:18.946Z,10.10
2023-04-20T16:18:48.185Z,13.30
2023-04-20T16:21:16.175Z,11.70
2023-04-20T16:23:44.153Z,13.30
2023-04-20T16:26:11.981Z,13.00
2023-04-20T16:28:39.841Z,14.20
2023-04-20T16:31:07.753Z,12.90
2023-04-20T16:33:36.607Z,14.20
2023-04-20T16:36:05.148Z,13.80
2023-04-20T16:39:13.352Z,14.00
2023-04-20T16:41:41.369Z,17.40
2023-04-20T16:44:09.450Z,18.70
2023-04-20T16:46:37.709Z,16.80
2023-04-20T16:49:05.589Z,15.20
2023-04-20T16:51:33.801Z,19.70
2023-04-20T16:54:01.894Z,21.20
2023-04-20T16:56:29.865Z,17.60
2023-04-20T16:58:58.260Z,15.30
2023-04-20T17:01:26.117Z,18.50
2023-04-20T17:03:54.218Z,13.40
2023-04-20T17:06:22.346Z,15.60
2023-04-20T17:08:50.447Z,19.20
2023-04-20T17:11:19.629Z,16.20
2023-04-20T17:13:47.701Z,16.40
2023-04-20T17:16:16.490Z,14.90
2023-04-20T17:18:44.980Z,15.40
2023-04-20T17:21:12.932Z,17.00
2023-04-20T17:23:41.284Z,19.20
2023-04-20T17:26:09.179Z,24.60
2023-04-20T17:28:37.017Z,19.00
2023-04-20T17:31:04.824Z,19.00
2023-04-20T17:33:32.768Z,16.10
2023-04-20T17:36:01.356Z,26.80
2023-04-20T17:38:29.249Z,22.20
2023-04-20T17:40:57.158Z,20.70
2023-04-20T17:43:25.102Z,22.30
2023-04-20T17:45:53.066Z,19.60
2023-04-20T17:48:20.959Z,18.00
2023-04-20T17:50:49.737Z,14.50
2023-04-20T17:53:17.686Z,21.80
2023-04-20T17:55:45.886Z,19.80
2023-04-20T17:58:13.808Z,24.10
2023-04-20T18:00:43.070Z,24.30
2023-04-20T18:03:11.232Z,38.70
2023-04-20T18:05:39.313Z,33.90
2023-04-20T18:08:07.417Z,32.70
2023-04-20T18:10:35.787Z,27.00
2023-04-20T18:13:03.561Z,26.50
2023-04-20T18:15:31.460Z,19.80
2023-04-20T18:17:59.546Z,12.90
2023-04-20T18:20:27.534Z,15.20
2023-04-20T18:22:55.518Z,17.00
2023-04-20T18:25:23.478Z,20.20
2023-04-20T18:27:51.373Z,16.80
2023-04-20T18:30:19.209Z,19.10
2023-04-20T18:32:47.177Z,16.10
2023-04-20T18:35:15.721Z,15.60
2023-04-20T18:37:43.570Z,17.00
2023-04-20T18:40:13.079Z,22.00
2023-04-20T18:42:42.639Z,13.30
2023-04-20T18:45:13.207Z,14.40
2023-04-20T18:47:41.264Z,17.00
2023-04-20T18:50:10.508Z,16.90
2023-04-20T18:52:38.490Z,13.90
2023-04-20T18:55:07.908Z,14.40
2023-04-20T18:57:35.822Z,16.70
2023-04-20T19:00:08.443Z,19.00
2023-04-20T19:02:37.116Z,16.60
2023-04-20T19:05:05.906Z,17.30
2023-04-20T19:07:33.764Z,20.90
2023-04-20T19:10:01.802Z,15.80
2023-04-20T19:12:30.078Z,18.60
2023-04-20T19:14:57.958Z,18.00
2023-04-20T19:17:26.178Z,15.10
2023-04-20T19:19:55.317Z,20.00
2023-04-20T19:22:23.382Z,24.40
2023-04-20T19:24:51.448Z,27.40
2023-04-20T19:27:19.536Z,29.50
2023-04-20T19:29:47.731Z,33.20
2023-04-20T19:32:15.691Z,31.10
2023-04-20T19:34:43.966Z,29.70
2023-04-20T19:37:12.145Z,29.60
2023-04-20T19:39:40.352Z,28.60
2023-04-20T19:42:08.179Z,27.80
2023-04-20T19:44:36.124Z,28.20
2023-04-20T19:47:04.329Z,18.60
2023-04-20T19:49:32.691Z,25.00
2023-04-20T19:52:00.791Z,17.90
2023-04-20T19:54:28.870Z,19.80
2023-04-20T19:56:57.785Z,16.10
2023-04-20T19:59:26.815Z,14.30
2023-04-20T20:01:54.779Z,14.90
2023-04-20T20:04:22.899Z,15.10
2023-04-20T20:06:51.399Z,19.20
2023-04-20T20:09:23.130Z,15.40
2023-04-20T20:11:51.947Z,14.80
2023-04-20T20:14:19.974Z,14.20
2023-04-20T20:16:49.261Z,12.50
2023-04-20T20:19:25.003Z,19.00
2023-04-20T20:21:53.758Z,21.60
2023-04-20T20:24:23.181Z,39.30
2023-04-20T20:26:51.218Z,16.90
2023-04-20T20:29:19.614Z,17.90
2023-04-20T20:31:47.857Z,14.30
2023-04-20T20:34:16.106Z,16.70
2023-04-20T20:36:45.950Z,16.90
2023-04-20T20:39:14.394Z,14.90
2023-04-20T20:41:42.449Z,14.50
2023-04-20T20:44:10.503Z,17.00
2023-04-20T20:46:38.809Z,13.50
2023-04-20T20:49:06.933Z,18.70
2023-04-20T20:51:35.164Z,15.10
2023-04-20T20:54:03.355Z,18.20
2023-04-20T20:56:31.541Z,16.70
2023-04-20T20:58:59.652Z,15.20
2023-04-20T21:01:27.539Z,15.70
2023-04-20T21:03:55.961Z,13.50
2023-04-20T21:06:23.940Z,16.40
2023-04-20T21:08:51.790Z,11.40
2023-04-20T21:11:19.760Z,11.30
2023-04-20T21:13:47.736Z,13.30
2023-04-20T21:16:15.671Z,13.70
2023-04-20T21:18:43.611Z,13.10
2023-04-20T21:21:12.816Z,16.10
2023-04-20T21:23:40.915Z,12.40
2023-04-20T21:26:09.164Z,10.00
2023-04-20T21:28:37.121Z,11.00
2023-04-20T21:31:05.168Z,11.90
2023-04-20T21:33:36.095Z,10.60
2023-04-20T21:36:04.337Z,13.10
2023-04-20T21:38:33.823Z,12.40
2023-04-20T21:41:01.751Z,14.60
2023-04-20T21:43:29.762Z,15.60
2023-04-20T21:45:57.691Z,12.00
2023-04-20T21:48:25.803Z,16.20
2023-04-20T21:50:53.725Z,13.30
2023-04-20T21:53:21.701Z,11.50
2023-04-20T21:55:49.670Z,13.40
2023-04-20T21:58:18.715Z,11.70
2023-04-20T22:00:46.829Z,11.60
2023-04-20T22:03:14.830Z,10.10
2023-04-20T22:05:43.173Z,11.60
2023-04-20T22:08:11.683Z,13.90
2023-04-20T22:10:40.128Z,11.50
2023-04-20T22:13:08.088Z,11.20
2023-04-20T22:15:36.330Z,12.00
2023-04-20T22:18:05.641Z,12.30
2023-04-20T22:20:33.787Z,14.40
2023-04-20T22:23:01.889Z,14.10
2023-04-20T22:25:29.946Z,13.80
2023-04-20T22:27:58.080Z,12.20
2023-04-20T22:30:26.037Z,14.80
2023-04-20T22:32:54.111Z,12.90
2023-04-20T22:35:22.461Z,12.80
2023-04-20T22:37:50.534Z,10.30
2023-04-20T22:40:18.727Z,12.80
2023-04-20T22:42:46.690Z,10.00
2023-04-20T22:45:14.913Z,12.00
2023-04-20T22:47:43.008Z,10.80
2023-04-20T22:50:12.485Z,12.20
2023-04-20T22:52:40.620Z,9.60
2023-04-20T22:55:09.398Z,9.50
2023-04-20T22:57:37.375Z,14.20
2023-04-20T23:00:07.979Z,10.90
2023-04-20T23:02:37.560Z,11.50
2023-04-20T23:05:06.591Z,11.10
2023-04-20T23:07:35.927Z,10.80
2023-04-20T23:10:04.757Z,11.70
2023-04-20T23:12:33.585Z,10.80
2023-04-20T23:15:01.514Z,12.40
2023-04-20T23:17:29.753Z,10.70
2023-04-20T23:19:58.410Z,13.20
2023-04-20T23:22:26.855Z,12.20
2023-04-20T23:24:57.347Z,12.70
2023-04-20T23:27:25.354Z,10.80
2023-04-20T23:29:53.219Z,11.20
2023-04-20T23:32:21.211Z,16.50
2023-04-20T23:34:49.084Z,13.70
2023-04-20T23:37:16.907Z,8.40
2023-04-20T23:39:44.736Z,8.40
2023-04-20T23:42:12.654Z,9.70
2023-04-20T23:44:40.508Z,11.20
2023-04-20T23:47:08.312Z,7.90
2023-04-20T23:49:36.444Z,13.20
2023-04-20T23:52:05.063Z,8.80
2023-04-20T23:54:33.500Z,10.20
2023-04-20T23:57:02.780Z,13.60
2023-04-20T23:59:31.648Z,11.10
